Oberon — SKJF — position and weather

sailwx.info

Track history (hours):
 
Tides and Currents Weather Stations Pressure Air Temp Water Temp Dewpoint Dewpoint Depression Visibility Wind Speed Wind Dir Waves Ship Positions

Oberon

Last reported at 2015-Aug-21 23:05 UTC. Time now 2015-Sep-01 14:15 UTC.
Position N 29°21' W 094°42'.
Warning: this ship's position is 10 days out of date.

Length 232 m; draft 10.3 m.

Type: Cargo ship. MMSI: 266283000.

Date/timePositionNaut miles runAvg speedWind from/ knotsBaromVisibWave heightAir tempDewpointWater temp
2015-Aug-21 23:05N 29°21' W 094°42'4 0.3
2015-Aug-21 10:33N 29°20' W 094°47'  
2015-Aug-19 04:33N 25°30' W 079°33'1717.0
2015-Aug-19 03:33N 25°47' W 079°31'1717.0
2015-Aug-19 02:33N 26°03' W 079°28'1717.0
2015-Aug-19 01:33N 26°20' W 079°26'33117.2
2015-Aug-18 06:17N 31°46' W 080°30'1115.8
2015-Aug-18 05:34N 31°56' W 080°37'1413.9
2015-Aug-18 04:33N 32°02' W 080°52'411.6
2015-Aug-18 04:11N 32°04' W 080°57'114.0
2015-Aug-18 04:09N 32°04' W 080°57'5 9.1
2015-Aug-18 03:33N 32°05' W 081°04'2 1.9
2015-Aug-18 02:31N 32°05' W 081°06'0 0.0
2015-Aug-18 01:31N 32°05' W 081°06'0 0.0
2015-Aug-18 00:31N 32°05' W 081°06'0 0.0
2015-Aug-17 23:31N 32°05' W 081°06'0 0.0
2015-Aug-17 22:31N 32°05' W 081°06'0 0.0
2015-Aug-17 21:31N 32°05' W 081°06'0 0.0
2015-Aug-17 20:31N 32°05' W 081°06'0 0.0
2015-Aug-17 19:31N 32°05' W 081°06'0 0.0
2015-Aug-17 18:28N 32°05' W 081°06'0 0.0
2015-Aug-17 17:31N 32°05' W 081°06'0 0.0
2015-Aug-17 16:31N 32°05' W 081°06'0 0.0
2015-Aug-17 15:31N 32°05' W 081°06'0 0.0
2015-Aug-17 14:31N 32°05' W 081°06'0 0.0
2015-Aug-17 13:31N 32°05' W 081°06'0 0.0
2015-Aug-17 12:31N 32°05' W 081°06'0 0.0
2015-Aug-17 11:31N 32°05' W 081°06'0 0.0
2015-Aug-17 10:31N 32°05' W 081°06'0 0.0
2015-Aug-17 09:31N 32°05' W 081°06'0 0.0
2015-Aug-17 08:31N 32°05' W 081°06'0 0.0
2015-Aug-17 07:31N 32°05' W 081°06'0 0.0
2015-Aug-17 06:25N 32°05' W 081°06'0 0.0
2015-Aug-17 05:31N 32°05' W 081°06'0 0.0
2015-Aug-17 04:31N 32°05' W 081°06'0 0.0
2015-Aug-17 03:31N 32°05' W 081°06'0 0.0
2015-Aug-17 02:33N 32°05' W 081°06'2 2.1
2015-Aug-17 01:33N 32°07' W 081°08'6 5.5
2015-Aug-17 00:33N 32°06' W 081°01'1212.0
2015-Aug-16 23:34N 32°01' W 080°48'1312.8
2015-Aug-16 22:33N 31°57' W 080°34'1211.6
2015-Aug-16 21:33N 31°58' W 080°20'1212.0
2015-Aug-16 20:32N 31°60' W 080°06'1211.9
2015-Aug-16 19:33N 32°04' W 079°53'16012.3
2015-Aug-16 06:33N 33°32' W 077°14'1312.8
2015-Aug-16 05:33N 33°41' W 077°03'1312.8
2015-Aug-16 04:33N 33°50' W 076°52'1312.9
2015-Aug-16 03:33N 33°59' W 076°40'1612.8
2015-Aug-16 02:19N 34°10' W 076°26'1312.6
2015-Aug-16 01:16N 34°19' W 076°15'912.6
2015-Aug-16 00:33N 34°25' W 076°07'18810.9
2015-Aug-15 07:20N 37°33' W 076°02'1316.4
2015-Aug-15 06:33N 37°44' W 076°11'1716.6
2015-Aug-15 05:33N 38°00' W 076°12'3517.0
2015-Aug-15 03:30N 38°33' W 076°26'1616.8
2015-Aug-15 02:33N 38°49' W 076°25'1515.4
2015-Aug-15 01:33N 39°05' W 076°24'1111.1
2015-Aug-15 00:33N 39°14' W 076°32'2 2.3
2015-Aug-14 23:30N 39°15' W 076°35'0 0.0
2015-Aug-14 22:33N 39°15' W 076°35'0 0.0
2015-Aug-14 21:33N 39°15' W 076°35'0 0.0
2015-Aug-14 20:33N 39°15' W 076°35'0 0.0
2015-Aug-14 19:33N 39°15' W 076°35'0 0.0
2015-Aug-14 18:33N 39°15' W 076°35'0 0.0
2015-Aug-14 17:33N 39°15' W 076°35'0 0.0
2015-Aug-14 16:33N 39°15' W 076°35'0 0.0
2015-Aug-14 15:33N 39°15' W 076°35'0 0.0
2015-Aug-14 14:33N 39°15' W 076°35'0 0.0
2015-Aug-14 13:33N 39°15' W 076°35'0 0.0
2015-Aug-14 12:33N 39°15' W 076°35'0 0.0
2015-Aug-14 11:33N 39°15' W 076°35'0 0.0
2015-Aug-14 10:33N 39°15' W 076°35'2 1.9
2015-Aug-14 09:33N 39°15' W 076°32'0 0.0
2015-Aug-14 08:33N 39°15' W 076°32'0 0.0
2015-Aug-14 07:31N 39°15' W 076°32'0 0.0
2015-Aug-14 06:31N 39°15' W 076°32'0 0.0
2015-Aug-14 05:31N 39°15' W 076°32'0 0.0
2015-Aug-14 04:31N 39°15' W 076°32'0 0.0
2015-Aug-14 03:31N 39°15' W 076°32'0 0.0
2015-Aug-14 02:31N 39°15' W 076°32'0 0.0
2015-Aug-14 01:31N 39°15' W 076°32'0 0.0
2015-Aug-14 00:31N 39°15' W 076°32'0 0.0
2015-Aug-13 23:28N 39°15' W 076°32'0 0.0
2015-Aug-13 22:31N 39°15' W 076°32'0 0.0
2015-Aug-13 21:31N 39°15' W 076°32'0 0.0
2015-Aug-13 20:28N 39°15' W 076°32'0 0.0
2015-Aug-13 19:22N 39°15' W 076°32'0 0.0
2015-Aug-13 18:31N 39°15' W 076°32'0 0.0
2015-Aug-13 17:31N 39°15' W 076°32'0 0.0
2015-Aug-13 16:31N 39°15' W 076°32'0 0.0
2015-Aug-13 15:28N 39°15' W 076°32'0 0.0
2015-Aug-13 14:28N 39°15' W 076°32'0 0.0
2015-Aug-13 13:31N 39°15' W 076°32'0 0.0
2015-Aug-13 12:31N 39°15' W 076°32'0 0.0
2015-Aug-13 11:31N 39°15' W 076°32'0 0.0
2015-Aug-13 10:28N 39°15' W 076°32'0 0.0
2015-Aug-13 09:33N 39°15' W 076°32'7 6.8
2015-Aug-13 08:33N 39°10' W 076°26'1514.6
2015-Aug-13 07:33N 38°56' W 076°23'1717.0
2015-Aug-13 06:33N 38°39' W 076°25'  
Track history (hours):
 
Tides and Currents Weather Stations Pressure Air Temp Water Temp Dewpoint Dewpoint Depression Visibility Wind Speed Wind Dir Waves Ship Positions

Oberon

Last reported at 2015-Aug-21 23:05 UTC. Time now 2015-Sep-01 14:15 UTC.
Position N 29°21' W 094°42'.
Warning: this ship's position is 10 days out of date.

Length 232 m; draft 10.3 m.

Type: Cargo ship. MMSI: 266283000.

Date/timePositionNaut miles runAvg speedWind from/ knotsBaromVisibWave heightAir tempDewpointWater temp
2015-Aug-21 23:05N 29°21' W 094°42'4 0.3
2015-Aug-21 10:33N 29°20' W 094°47'  
2015-Aug-19 04:33N 25°30' W 079°33'1717.0
2015-Aug-19 03:33N 25°47' W 079°31'1717.0
2015-Aug-19 02:33N 26°03' W 079°28'1717.0
2015-Aug-19 01:33N 26°20' W 079°26'33117.2
2015-Aug-18 06:17N 31°46' W 080°30'1115.8
2015-Aug-18 05:34N 31°56' W 080°37'1413.9
2015-Aug-18 04:33N 32°02' W 080°52'411.6
2015-Aug-18 04:11N 32°04' W 080°57'114.0
2015-Aug-18 04:09N 32°04' W 080°57'5 9.1
2015-Aug-18 03:33N 32°05' W 081°04'2 1.9
2015-Aug-18 02:31N 32°05' W 081°06'0 0.0
2015-Aug-18 01:31N 32°05' W 081°06'0 0.0
2015-Aug-18 00:31N 32°05' W 081°06'0 0.0
2015-Aug-17 23:31N 32°05' W 081°06'0 0.0
2015-Aug-17 22:31N 32°05' W 081°06'0 0.0
2015-Aug-17 21:31N 32°05' W 081°06'0 0.0
2015-Aug-17 20:31N 32°05' W 081°06'0 0.0
2015-Aug-17 19:31N 32°05' W 081°06'0 0.0
2015-Aug-17 18:28N 32°05' W 081°06'0 0.0
2015-Aug-17 17:31N 32°05' W 081°06'0 0.0
2015-Aug-17 16:31N 32°05' W 081°06'0 0.0
2015-Aug-17 15:31N 32°05' W 081°06'0 0.0
2015-Aug-17 14:31N 32°05' W 081°06'0 0.0
2015-Aug-17 13:31N 32°05' W 081°06'0 0.0
2015-Aug-17 12:31N 32°05' W 081°06'0 0.0
2015-Aug-17 11:31N 32°05' W 081°06'0 0.0
2015-Aug-17 10:31N 32°05' W 081°06'0 0.0
2015-Aug-17 09:31N 32°05' W 081°06'0 0.0
2015-Aug-17 08:31N 32°05' W 081°06'0 0.0
2015-Aug-17 07:31N 32°05' W 081°06'0 0.0
2015-Aug-17 06:25N 32°05' W 081°06'0 0.0
2015-Aug-17 05:31N 32°05' W 081°06'0 0.0
2015-Aug-17 04:31N 32°05' W 081°06'0 0.0
2015-Aug-17 03:31N 32°05' W 081°06'0 0.0
2015-Aug-17 02:33N 32°05' W 081°06'2 2.1
2015-Aug-17 01:33N 32°07' W 081°08'6 5.5
2015-Aug-17 00:33N 32°06' W 081°01'1212.0
2015-Aug-16 23:34N 32°01' W 080°48'1312.8
2015-Aug-16 22:33N 31°57' W 080°34'1211.6
2015-Aug-16 21:33N 31°58' W 080°20'1212.0
2015-Aug-16 20:32N 31°60' W 080°06'1211.9
2015-Aug-16 19:33N 32°04' W 079°53'16012.3
2015-Aug-16 06:33N 33°32' W 077°14'1312.8
2015-Aug-16 05:33N 33°41' W 077°03'1312.8
2015-Aug-16 04:33N 33°50' W 076°52'1312.9
2015-Aug-16 03:33N 33°59' W 076°40'1612.8
2015-Aug-16 02:19N 34°10' W 076°26'1312.6
2015-Aug-16 01:16N 34°19' W 076°15'912.6
2015-Aug-16 00:33N 34°25' W 076°07'18810.9
2015-Aug-15 07:20N 37°33' W 076°02'1316.4
2015-Aug-15 06:33N 37°44' W 076°11'1716.6
2015-Aug-15 05:33N 38°00' W 076°12'3517.0
2015-Aug-15 03:30N 38°33' W 076°26'1616.8
2015-Aug-15 02:33N 38°49' W 076°25'1515.4
2015-Aug-15 01:33N 39°05' W 076°24'1111.1
2015-Aug-15 00:33N 39°14' W 076°32'2 2.3
2015-Aug-14 23:30N 39°15' W 076°35'0 0.0
2015-Aug-14 22:33N 39°15' W 076°35'0 0.0
2015-Aug-14 21:33N 39°15' W 076°35'0 0.0
2015-Aug-14 20:33N 39°15' W 076°35'0 0.0
2015-Aug-14 19:33N 39°15' W 076°35'0 0.0
2015-Aug-14 18:33N 39°15' W 076°35'0 0.0
2015-Aug-14 17:33N 39°15' W 076°35'0 0.0
2015-Aug-14 16:33N 39°15' W 076°35'0 0.0
2015-Aug-14 15:33N 39°15' W 076°35'0 0.0
2015-Aug-14 14:33N 39°15' W 076°35'0 0.0
2015-Aug-14 13:33N 39°15' W 076°35'0 0.0
2015-Aug-14 12:33N 39°15' W 076°35'0 0.0
2015-Aug-14 11:33N 39°15' W 076°35'0 0.0
2015-Aug-14 10:33N 39°15' W 076°35'2 1.9
2015-Aug-14 09:33N 39°15' W 076°32'0 0.0
2015-Aug-14 08:33N 39°15' W 076°32'0 0.0
2015-Aug-14 07:31N 39°15' W 076°32'0 0.0
2015-Aug-14 06:31N 39°15' W 076°32'0 0.0
2015-Aug-14 05:31N 39°15' W 076°32'0 0.0
2015-Aug-14 04:31N 39°15' W 076°32'0 0.0
2015-Aug-14 03:31N 39°15' W 076°32'0 0.0
2015-Aug-14 02:31N 39°15' W 076°32'0 0.0
2015-Aug-14 01:31N 39°15' W 076°32'0 0.0
2015-Aug-14 00:31N 39°15' W 076°32'0 0.0
2015-Aug-13 23:28N 39°15' W 076°32'0 0.0
2015-Aug-13 22:31N 39°15' W 076°32'0 0.0
2015-Aug-13 21:31N 39°15' W 076°32'0 0.0
2015-Aug-13 20:28N 39°15' W 076°32'0 0.0
2015-Aug-13 19:22N 39°15' W 076°32'0 0.0
2015-Aug-13 18:31N 39°15' W 076°32'0 0.0
2015-Aug-13 17:31N 39°15' W 076°32'0 0.0
2015-Aug-13 16:31N 39°15' W 076°32'0 0.0
2015-Aug-13 15:28N 39°15' W 076°32'0 0.0
2015-Aug-13 14:28N 39°15' W 076°32'0 0.0
2015-Aug-13 13:31N 39°15' W 076°32'0 0.0
2015-Aug-13 12:31N 39°15' W 076°32'0 0.0
2015-Aug-13 11:31N 39°15' W 076°32'0 0.0
2015-Aug-13 10:28N 39°15' W 076°32'0 0.0
2015-Aug-13 09:33N 39°15' W 076°32'7 6.8
2015-Aug-13 08:33N 39°10' W 076°26'1514.6
2015-Aug-13 07:33N 38°56' W 076°23'1717.0
2015-Aug-13 06:33N 38°39' W 076°25'  

Dump ship's entire track history